L'Atalante — FNCM — position and weather

sailwx.info

Track history (hours):
 
Tides and Currents Weather Stations Pressure Air Temp Water Temp Dewpoint Dewpoint Depression Visibility Wind Speed Wind Dir Waves Ship Positions

Oceanographic research ship L'Atalante (France)

Detailed information on ship capabilities available from University of Delaware's Ocean Information Center and ARCUS's ALIAS (Arctic Logistics Information and Support) project.

Last reported at 2017-Mar-20 23:23 UTC. Time now 2017-Mar-26 03:36 UTC.
Position N 27°39' W 015°41'.

Length 85 m; beam 16 m.

Type: Other ship. MMSI: 227222000.

Date/timePositionNaut miles runAvg speedWind from/ knotsBaromVisibWave heightAir tempDewpointWater temp
2017-Mar-20 23:23N 27°39' W 015°41'  
2017-Mar-16 14:16N 35°57' W 005°44'912.5
2017-Mar-16 13:33N 35°58' W 005°33'1111.3
2017-Mar-16 12:33N 36°01' W 005°19'1212.3
2017-Mar-16 11:33N 36°05' W 005°05'23410.2
2017-Mar-15 12:34N 37°33' W 000°35'1110.9
2017-Mar-15 11:33N 37°41' W 000°25'14010.4
2017-Mar-14 22:11N 39°25' E 001°34'711.1
2017-Mar-14 21:33N 39°30' E 001°40'1511.0
2017-Mar-14 20:13N 39°41' E 001°53'711.0
2017-Mar-14 19:33N 39°47' E 001°59'1110.7
2017-Mar-14 18:33N 39°55' E 002°08'1010.5
2017-Mar-14 17:33N 40°03' E 002°17'1010.4
2017-Mar-14 16:33N 40°11' E 002°25'1010.0
2017-Mar-14 15:33N 40°18' E 002°34'1010.2
2017-Mar-14 14:33N 40°26' E 002°43'1010.4
2017-Mar-14 13:33N 40°34' E 002°51'1110.9
2017-Mar-14 12:33N 40°42' E 003°01'1110.9
2017-Mar-14 11:33N 40°51' E 003°10'1111.0
2017-Mar-14 10:33N 40°59' E 003°20'171 4.4
2017-Mar-12 19:15N 43°06' E 005°55'2 2.5
2017-Mar-12 18:33N 43°06' E 005°53'0 0.0
2017-Mar-12 17:33N 43°06' E 005°53'0 0.0
2017-Mar-12 16:33N 43°06' E 005°53'0 0.0
2017-Mar-12 15:33N 43°06' E 005°53'0 0.0
2017-Mar-12 14:30N 43°06' E 005°53'0 0.0
2017-Mar-12 13:33N 43°06' E 005°53'0 0.0
2017-Mar-12 12:33N 43°06' E 005°53'0 0.0
2017-Mar-12 11:33N 43°06' E 005°53'0 0.0
2017-Mar-12 10:33N 43°06' E 005°53'0 0.0
2017-Mar-12 09:33N 43°06' E 005°53'0 0.0
2017-Mar-12 08:33N 43°06' E 005°53'0 0.0
2017-Mar-12 07:33N 43°06' E 005°53'0 0.0
2017-Mar-12 06:33N 43°06' E 005°53'0 0.0
2017-Mar-12 05:33N 43°06' E 005°53'0 0.0
2017-Mar-12 04:33N 43°06' E 005°53'0 0.0
2017-Mar-12 03:33N 43°06' E 005°53'0 0.0
2017-Mar-12 02:33N 43°06' E 005°53'0 0.0
2017-Mar-12 01:33N 43°06' E 005°53'0 0.0
2017-Mar-12 00:33N 43°06' E 005°53'0 0.0
2017-Mar-11 23:33N 43°06' E 005°53'0 0.0
2017-Mar-11 22:33N 43°06' E 005°53'0 0.0
2017-Mar-11 21:33N 43°06' E 005°53'2 2.3
2017-Mar-11 20:32N 43°05' E 005°56'44 7.4
2017-Mar-11 14:34N 43°11' E 006°56'0 0.0
2017-Mar-11 13:33N 43°11' E 006°56'0 0.0
2017-Mar-11 12:12N 43°11' E 006°56'1 0.2
2017-Mar-11 05:34N 43°10' E 006°57'0 0.1
2017-Mar-11 04:34N 43°10' E 006°57'  
Track history (hours):
 
Tides and Currents Weather Stations Pressure Air Temp Water Temp Dewpoint Dewpoint Depression Visibility Wind Speed Wind Dir Waves Ship Positions

Oceanographic research ship L'Atalante (France)

Detailed information on ship capabilities available from University of Delaware's Ocean Information Center and ARCUS's ALIAS (Arctic Logistics Information and Support) project.

Last reported at 2017-Mar-20 23:23 UTC. Time now 2017-Mar-26 03:36 UTC.
Position N 27°39' W 015°41'.

Length 85 m; beam 16 m.

Type: Other ship. MMSI: 227222000.

Date/timePositionNaut miles runAvg speedWind from/ knotsBaromVisibWave heightAir tempDewpointWater temp
2017-Mar-20 23:23N 27°39' W 015°41'  
2017-Mar-16 14:16N 35°57' W 005°44'912.5
2017-Mar-16 13:33N 35°58' W 005°33'1111.3
2017-Mar-16 12:33N 36°01' W 005°19'1212.3
2017-Mar-16 11:33N 36°05' W 005°05'23410.2
2017-Mar-15 12:34N 37°33' W 000°35'1110.9
2017-Mar-15 11:33N 37°41' W 000°25'14010.4
2017-Mar-14 22:11N 39°25' E 001°34'711.1
2017-Mar-14 21:33N 39°30' E 001°40'1511.0
2017-Mar-14 20:13N 39°41' E 001°53'711.0
2017-Mar-14 19:33N 39°47' E 001°59'1110.7
2017-Mar-14 18:33N 39°55' E 002°08'1010.5
2017-Mar-14 17:33N 40°03' E 002°17'1010.4
2017-Mar-14 16:33N 40°11' E 002°25'1010.0
2017-Mar-14 15:33N 40°18' E 002°34'1010.2
2017-Mar-14 14:33N 40°26' E 002°43'1010.4
2017-Mar-14 13:33N 40°34' E 002°51'1110.9
2017-Mar-14 12:33N 40°42' E 003°01'1110.9
2017-Mar-14 11:33N 40°51' E 003°10'1111.0
2017-Mar-14 10:33N 40°59' E 003°20'171 4.4
2017-Mar-12 19:15N 43°06' E 005°55'2 2.5
2017-Mar-12 18:33N 43°06' E 005°53'0 0.0
2017-Mar-12 17:33N 43°06' E 005°53'0 0.0
2017-Mar-12 16:33N 43°06' E 005°53'0 0.0
2017-Mar-12 15:33N 43°06' E 005°53'0 0.0
2017-Mar-12 14:30N 43°06' E 005°53'0 0.0
2017-Mar-12 13:33N 43°06' E 005°53'0 0.0
2017-Mar-12 12:33N 43°06' E 005°53'0 0.0
2017-Mar-12 11:33N 43°06' E 005°53'0 0.0
2017-Mar-12 10:33N 43°06' E 005°53'0 0.0
2017-Mar-12 09:33N 43°06' E 005°53'0 0.0
2017-Mar-12 08:33N 43°06' E 005°53'0 0.0
2017-Mar-12 07:33N 43°06' E 005°53'0 0.0
2017-Mar-12 06:33N 43°06' E 005°53'0 0.0
2017-Mar-12 05:33N 43°06' E 005°53'0 0.0
2017-Mar-12 04:33N 43°06' E 005°53'0 0.0
2017-Mar-12 03:33N 43°06' E 005°53'0 0.0
2017-Mar-12 02:33N 43°06' E 005°53'0 0.0
2017-Mar-12 01:33N 43°06' E 005°53'0 0.0
2017-Mar-12 00:33N 43°06' E 005°53'0 0.0
2017-Mar-11 23:33N 43°06' E 005°53'0 0.0
2017-Mar-11 22:33N 43°06' E 005°53'0 0.0
2017-Mar-11 21:33N 43°06' E 005°53'2 2.3
2017-Mar-11 20:32N 43°05' E 005°56'44 7.4
2017-Mar-11 14:34N 43°11' E 006°56'0 0.0
2017-Mar-11 13:33N 43°11' E 006°56'0 0.0
2017-Mar-11 12:12N 43°11' E 006°56'1 0.2
2017-Mar-11 05:34N 43°10' E 006°57'0 0.1
2017-Mar-11 04:34N 43°10' E 006°57'  

Dump ship's entire track history